Gulfport Biloxi International Airport
KGPT : rendu visible

Aérodrome :











RETROUVEZ-NOUS SUR...

 
LOGIN :

S'inscrire | Disclaimer

   EN    FR    IT 

 









Légende :    VFR   VFR Marginal   IFR   IFR Intensif   IFR Très Intensif
Visi : 
Plafond : 
>= 8 km
>= 3000ft
5 à 8 km
1000 à 3000 ft
1500m à 5 km
500 à 1000 ft
800 à 1500m
200 à 500 ft
< 800m
< 200 ft
Symboles :   Orages  Brouillard  Fortes neiges  Fortes précipitations  Vent > 20 kt






- Altitude de l'aérodrome : 28 ft
- Code IATA : GPT


KGPT - Gulfport Biloxi International

DERNIER METAR :
  • 072253Z VRB05KT 10SM CLR 32/21 A3003 RMK AO2 SLP167 T03220206

METARs EXPIRÉS :
  • 072153Z 18006KT 10SM CLR 33/21 A3003 RMK AO2 SLP168 T03280206
  • 072053Z 17007KT 10SM CLR 33/21 A3004 RMK AO2 SLP171 T03330206 58008

TAF KGPT
Valide du 08 à 00h jusqu'au 09 à 00h UTC


072325Z 0800/0824 VRB04KT P6SM SKC
FM081700 16006KT P6SM SCT050
FIR KZHU / Amérique du Nord



MET'MAP, la Météo Aéronautique d'un coup d'oeil ! - Copyright ORBIFLY Décembre 2007 - Disclaimer

ORBIFLY MET'MAP TEAM :

Programmation & Développement : Alexandra Zaïnal
Sur une idée originale de : Baudouin d'Aumeries
Assistance à la programmation : Marc-Olivier Méhu
Soutien technique & logistique : Manuel Goepfert

Contact : metmap@orbifly.com




SOURCES & CREDITS :

   NOAA       Earth
Advisory